CYAS

Kangirsuk Airport

ICAO Code CYAS
IATA Code YKG
Name Kangirsuk Airport
Location Kangirsuk, Quebec, CA
Elevation 406 Feet / 123.7 Meters
Latitude 60.02722222
Longitude -69.99916667
METAR CYAS 072100Z 14005KT 15SM FEW007 BKN018 BKN078 02/00 A3013 RMK SF1SC4AC1 LAST STFD OBS/NEXT 081200UTC WND ESTD SLP214
Extra information Display Charts and CFS
Display NOTAMS
Runway Length Width Surface Elevation
03 3521 ft 100 ft GRAVEL 342 ft
21 3521 ft 100 ft GRAVEL 406 ft